sensor_id;sensor_type;location;lat;lon;timestamp;pressure;altitude;pressure_sealevel;temperature;humidity
57948;BME280;43754;56.992;24.292;2023-02-14T00:01:30;102396.50;;;3.09;100.00
57948;BME280;43754;56.992;24.292;2023-02-14T00:04:02;102389.59;;;3.06;100.00
57948;BME280;43754;56.992;24.292;2023-02-14T00:06:34;102396.09;;;3.01;100.00
57948;BME280;43754;56.992;24.292;2023-02-14T00:09:13;102403.22;;;3.00;100.00
57948;BME280;43754;56.992;24.292;2023-02-14T00:11:45;102404.03;;;3.01;100.00
57948;BME280;43754;56.992;24.292;2023-02-14T00:14:18;102412.94;;;3.00;100.00
57948;BME280;43754;56.992;24.292;2023-02-14T00:17:09;102413.09;;;2.97;100.00
57948;BME280;43754;56.992;24.292;2023-02-14T00:19:41;102413.09;;;2.97;100.00
57948;BME280;43754;56.992;24.292;2023-02-14T00:22:13;102421.84;;;2.99;100.00
57948;BME280;43754;56.992;24.292;2023-02-14T00:24:45;102421.84;;;2.99;100.00
57948;BME280;43754;56.992;24.292;2023-02-14T00:27:17;102423.81;;;2.95;100.00
57948;BME280;43754;56.992;24.292;2023-02-14T00:29:50;102428.06;;;2.98;100.00
57948;BME280;43754;56.992;24.292;2023-02-14T00:32:22;102420.22;;;2.96;100.00
57948;BME280;43754;56.992;24.292;2023-02-14T00:34:57;102422.88;;;2.96;100.00
57948;BME280;43754;56.992;24.292;2023-02-14T00:37:29;102434.47;;;2.94;100.00
57948;BME280;43754;56.992;24.292;2023-02-14T00:40:01;102430.22;;;2.91;100.00
57948;BME280;43754;56.992;24.292;2023-02-14T00:42:35;102441.56;;;2.93;100.00
57948;BME280;43754;56.992;24.292;2023-02-14T00:45:08;102436.13;;;2.96;100.00
57948;BME280;43754;56.992;24.292;2023-02-14T00:47:40;102440.28;;;3.00;100.00
57948;BME280;43754;56.992;24.292;2023-02-14T00:50:12;102445.84;;;2.96;100.00
57948;BME280;43754;56.992;24.292;2023-02-14T00:52:44;102445.34;;;2.89;100.00
57948;BME280;43754;56.992;24.292;2023-02-14T00:55:17;102449.13;;;2.85;100.00
57948;BME280;43754;56.992;24.292;2023-02-14T00:57:50;102450.41;;;2.78;100.00
57948;BME280;43754;56.992;24.292;2023-02-14T01:00:24;102452.22;;;2.77;100.00
57948;BME280;43754;56.992;24.292;2023-02-14T01:02:59;102466.38;;;2.76;100.00
57948;BME280;43754;56.992;24.292;2023-02-14T01:05:31;102454.00;;;2.77;100.00
57948;BME280;43754;56.992;24.292;2023-02-14T01:08:03;102471.69;;;2.76;100.00
57948;BME280;43754;56.992;24.292;2023-02-14T01:10:35;102467.16;;;2.78;100.00
57948;BME280;43754;56.992;24.292;2023-02-14T01:13:08;102479.63;;;2.76;100.00
57948;BME280;43754;56.992;24.292;2023-02-14T01:15:43;102475.44;;;2.72;100.00
57948;BME280;43754;56.992;24.292;2023-02-14T01:18:17;102476.56;;;2.68;100.00
57948;BME280;43754;56.992;24.292;2023-02-14T01:20:52;102483.75;;;2.66;100.00
57948;BME280;43754;56.992;24.292;2023-02-14T01:23:24;102481.19;;;2.65;100.00
57948;BME280;43754;56.992;24.292;2023-02-14T01:25:55;102482.03;;;2.65;100.00
57948;BME280;43754;56.992;24.292;2023-02-14T01:28:27;102475.88;;;2.65;100.00
57948;BME280;43754;56.992;24.292;2023-02-14T01:31:06;102475.88;;;2.65;100.00
57948;BME280;43754;56.992;24.292;2023-02-14T01:33:40;102482.97;;;2.64;100.00
57948;BME280;43754;56.992;24.292;2023-02-14T01:36:16;102484.94;;;2.61;100.00
57948;BME280;43754;56.992;24.292;2023-02-14T01:38:51;102491.16;;;2.60;100.00
57948;BME280;43754;56.992;24.292;2023-02-14T01:41:25;102493.81;;;2.60;100.00
57948;BME280;43754;56.992;24.292;2023-02-14T01:44:00;102492.19;;;2.57;100.00
57948;BME280;43754;56.992;24.292;2023-02-14T01:46:35;102489.47;;;2.59;100.00
57948;BME280;43754;56.992;24.292;2023-02-14T01:49:12;102486.84;;;2.59;100.00
57948;BME280;43754;56.992;24.292;2023-02-14T01:51:47;102488.69;;;2.57;100.00
57948;BME280;43754;56.992;24.292;2023-02-14T01:54:23;102491.41;;;2.55;100.00
57948;BME280;43754;56.992;24.292;2023-02-14T01:56:58;102500.31;;;2.54;100.00
57948;BME280;43754;56.992;24.292;2023-02-14T01:59:34;102496.88;;;2.52;100.00
57948;BME280;43754;56.992;24.292;2023-02-14T02:02:09;102497.13;;;2.48;100.00
57948;BME280;43754;56.992;24.292;2023-02-14T02:04:44;102495.16;;;2.51;100.00
57948;BME280;43754;56.992;24.292;2023-02-14T02:07:21;102497.81;;;2.51;100.00
57948;BME280;43754;56.992;24.292;2023-02-14T02:09:57;102501.44;;;2.50;100.00
57948;BME280;43754;56.992;24.292;2023-02-14T02:12:31;102492.78;;;2.47;100.00
57948;BME280;43754;56.992;24.292;2023-02-14T02:15:06;102500.91;;;2.44;100.00
57948;BME280;43754;56.992;24.292;2023-02-14T02:17:47;102503.72;;;2.41;100.00
57948;BME280;43754;56.992;24.292;2023-02-14T02:20:56;102515.22;;;2.40;100.00
57948;BME280;43754;56.992;24.292;2023-02-14T02:23:54;102515.16;;;2.41;100.00
57948;BME280;43754;56.992;24.292;2023-02-14T02:26:55;102508.84;;;2.44;100.00
57948;BME280;43754;56.992;24.292;2023-02-14T02:32:50;102508.22;;;2.39;100.00
57948;BME280;43754;56.992;24.292;2023-02-14T02:35:39;102523.34;;;2.37;100.00
57948;BME280;43754;56.992;24.292;2023-02-14T02:38:28;102523.44;;;2.35;100.00
57948;BME280;43754;56.992;24.292;2023-02-14T02:41:13;102527.84;;;2.35;100.00
57948;BME280;43754;56.992;24.292;2023-02-14T02:43:53;102535.91;;;2.33;100.00
57948;BME280;43754;56.992;24.292;2023-02-14T02:46:33;102533.41;;;2.30;100.00
57948;BME280;43754;56.992;24.292;2023-02-14T02:49:32;102536.28;;;2.25;100.00
57948;BME280;43754;56.992;24.292;2023-02-14T02:52:31;102545.09;;;2.26;100.00
57948;BME280;43754;56.992;24.292;2023-02-14T02:55:28;102540.75;;;2.25;100.00
57948;BME280;43754;56.992;24.292;2023-02-14T02:58:02;102540.88;;;2.22;100.00
57948;BME280;43754;56.992;24.292;2023-02-14T03:00:35;102542.00;;;2.18;100.00
57948;BME280;43754;56.992;24.292;2023-02-14T03:03:07;102560.75;;;2.13;100.00
57948;BME280;43754;56.992;24.292;2023-02-14T03:05:59;102568.69;;;2.13;100.00
57948;BME280;43754;56.992;24.292;2023-02-14T03:08:32;102569.53;;;2.14;100.00
57948;BME280;43754;56.992;24.292;2023-02-14T03:11:04;102562.47;;;2.14;100.00
57948;BME280;43754;56.992;24.292;2023-02-14T03:13:52;102567.69;;;2.16;100.00
57948;BME280;43754;56.992;24.292;2023-02-14T03:16:34;102572.13;;;2.15;100.00
57948;BME280;43754;56.992;24.292;2023-02-14T03:19:46;102562.63;;;2.11;100.00
57948;BME280;43754;56.992;24.292;2023-02-14T03:22:48;102575.19;;;2.08;100.00
57948;BME280;43754;56.992;24.292;2023-02-14T03:25:31;102575.19;;;2.08;100.00
57948;BME280;43754;56.992;24.292;2023-02-14T03:28:13;102583.00;;;2.09;100.00
57948;BME280;43754;56.992;24.292;2023-02-14T03:30:57;102584.03;;;2.07;100.00
57948;BME280;43754;56.992;24.292;2023-02-14T03:33:40;102565.59;;;2.05;100.00
57948;BME280;43754;56.992;24.292;2023-02-14T03:36:18;102573.47;;;2.07;100.00
57948;BME280;43754;56.992;24.292;2023-02-14T03:38:54;102583.19;;;2.06;100.00
57948;BME280;43754;56.992;24.292;2023-02-14T03:41:35;102583.13;;;2.08;100.00
57948;BME280;43754;56.992;24.292;2023-02-14T03:44:09;102579.59;;;2.07;100.00
57948;BME280;43754;56.992;24.292;2023-02-14T03:46:46;102574.31;;;2.07;100.00
57948;BME280;43754;56.992;24.292;2023-02-14T03:49:23;102576.19;;;2.05;100.00
57948;BME280;43754;56.992;24.292;2023-02-14T03:51:58;102586.91;;;2.02;100.00
57948;BME280;43754;56.992;24.292;2023-02-14T03:54:34;102586.22;;;1.99;100.00
57948;BME280;43754;56.992;24.292;2023-02-14T03:57:13;102593.31;;;1.98;100.00
57948;BME280;43754;56.992;24.292;2023-02-14T03:59:47;102603.03;;;1.98;100.00
57948;BME280;43754;56.992;24.292;2023-02-14T04:02:23;102599.63;;;1.96;100.00
57948;BME280;43754;56.992;24.292;2023-02-14T04:04:58;102601.31;;;1.97;100.00
57948;BME280;43754;56.992;24.292;2023-02-14T04:07:42;102591.53;;;1.99;100.00
57948;BME280;43754;56.992;24.292;2023-02-14T04:10:16;102591.53;;;1.99;100.00
57948;BME280;43754;56.992;24.292;2023-02-14T04:12:50;102603.81;;;2.00;100.00
57948;BME280;43754;56.992;24.292;2023-02-14T04:15:22;102610.03;;;1.99;100.00
57948;BME280;43754;56.992;24.292;2023-02-14T04:17:54;102626.06;;;1.96;100.00
57948;BME280;43754;56.992;24.292;2023-02-14T04:20:45;102634.22;;;1.91;100.00
57948;BME280;43754;56.992;24.292;2023-02-14T04:23:17;102629.00;;;1.90;100.00
57948;BME280;43754;56.992;24.292;2023-02-14T04:25:49;102628.72;;;1.96;100.00
57948;BME280;43754;56.992;24.292;2023-02-14T04:28:22;102635.00;;;1.93;100.00
57948;BME280;43754;56.992;24.292;2023-02-14T04:30:54;102644.94;;;1.88;100.00
57948;BME280;43754;56.992;24.292;2023-02-14T04:33:26;102641.53;;;1.86;100.00
57948;BME280;43754;56.992;24.292;2023-02-14T04:35:58;102632.75;;;1.85;100.00
57948;BME280;43754;56.992;24.292;2023-02-14T04:38:31;102638.97;;;1.84;100.00
57948;BME280;43754;56.992;24.292;2023-02-14T04:41:04;102647.75;;;1.85;100.00
57948;BME280;43754;56.992;24.292;2023-02-14T04:43:37;102646.88;;;1.84;100.00
57948;BME280;43754;56.992;24.292;2023-02-14T04:46:09;102648.84;;;1.81;100.00
57948;BME280;43754;56.992;24.292;2023-02-14T04:48:41;102648.94;;;1.79;100.00
57948;BME280;43754;56.992;24.292;2023-02-14T04:51:13;102669.22;;;1.79;100.00
57948;BME280;43754;56.992;24.292;2023-02-14T04:53:45;102667.66;;;1.75;100.00
57948;BME280;43754;56.992;24.292;2023-02-14T04:56:16;102674.56;;;1.77;100.00
57948;BME280;43754;56.992;24.292;2023-02-14T04:58:50;102681.72;;;1.75;100.00
57948;BME280;43754;56.992;24.292;2023-02-14T05:01:22;102697.56;;;1.75;100.00
57948;BME280;43754;56.992;24.292;2023-02-14T05:03:54;102690.59;;;1.74;100.00
57948;BME280;43754;56.992;24.292;2023-02-14T05:06:26;102692.38;;;1.74;100.00
57948;BME280;43754;56.992;24.292;2023-02-14T05:08:59;102704.81;;;1.72;100.00
57948;BME280;43754;56.992;24.292;2023-02-14T05:11:32;102709.38;;;1.68;100.00
57948;BME280;43754;56.992;24.292;2023-02-14T05:14:05;102723.53;;;1.67;100.00
57948;BME280;43754;56.992;24.292;2023-02-14T05:16:38;102732.41;;;1.66;100.00
57948;BME280;43754;56.992;24.292;2023-02-14T05:19:10;102736.03;;;1.64;100.00
57948;BME280;43754;56.992;24.292;2023-02-14T05:21:42;102747.41;;;1.66;100.00
57948;BME280;43754;56.992;24.292;2023-02-14T05:24:14;102746.72;;;1.62;100.00
57948;BME280;43754;56.992;24.292;2023-02-14T05:26:46;102746.84;;;1.59;100.00
57948;BME280;43754;56.992;24.292;2023-02-14T05:29:20;102754.00;;;1.57;100.00
57948;BME280;43754;56.992;24.292;2023-02-14T05:31:52;102747.84;;;1.57;100.00
57948;BME280;43754;56.992;24.292;2023-02-14T05:34:24;102753.34;;;1.52;100.00
57948;BME280;43754;56.992;24.292;2023-02-14T05:36:56;102745.25;;;1.55;100.00
57948;BME280;43754;56.992;24.292;2023-02-14T05:39:28;102737.56;;;1.51;100.00
57948;BME280;43754;56.992;24.292;2023-02-14T05:42:00;102757.88;;;1.50;100.00
57948;BME280;43754;56.992;24.292;2023-02-14T05:44:33;102765.84;;;1.49;100.00
57948;BME280;43754;56.992;24.292;2023-02-14T05:47:05;102758.69;;;1.51;100.00
57948;BME280;43754;56.992;24.292;2023-02-14T05:49:37;102757.88;;;1.50;100.00
57948;BME280;43754;56.992;24.292;2023-02-14T05:52:09;102769.22;;;1.52;100.00
57948;BME280;43754;56.992;24.292;2023-02-14T05:54:41;102766.63;;;1.51;100.00
57948;BME280;43754;56.992;24.292;2023-02-14T05:57:13;102762.19;;;1.51;100.00
57948;BME280;43754;56.992;24.292;2023-02-14T05:59:47;102763.28;;;1.47;100.00
57948;BME280;43754;56.992;24.292;2023-02-14T06:02:19;102772.22;;;1.45;100.00
57948;BME280;43754;56.992;24.292;2023-02-14T06:04:51;102778.47;;;1.42;100.00
57948;BME280;43754;56.992;24.292;2023-02-14T06:07:23;102789.13;;;1.41;100.00
57948;BME280;43754;56.992;24.292;2023-02-14T06:09:55;102800.47;;;1.43;100.00
57948;BME280;43754;56.992;24.292;2023-02-14T06:12:27;102792.56;;;1.43;100.00
57948;BME280;43754;56.992;24.292;2023-02-14T06:15:00;102790.72;;;1.45;100.00
57948;BME280;43754;56.992;24.292;2023-02-14T06:17:32;102790.72;;;1.45;100.00
57948;BME280;43754;56.992;24.292;2023-02-14T06:20:05;102793.28;;;1.46;100.00
57948;BME280;43754;56.992;24.292;2023-02-14T06:22:40;102798.50;;;1.48;100.00
57948;BME280;43754;56.992;24.292;2023-02-14T06:25:12;102789.56;;;1.50;100.00
57948;BME280;43754;56.992;24.292;2023-02-14T06:27:44;102794.00;;;1.50;100.00
57948;BME280;43754;56.992;24.292;2023-02-14T06:30:21;102796.72;;;1.48;100.00
57948;BME280;43754;56.992;24.292;2023-02-14T06:32:57;102798.44;;;1.49;100.00
57948;BME280;43754;56.992;24.292;2023-02-14T06:35:29;102809.72;;;1.53;100.00
57948;BME280;43754;56.992;24.292;2023-02-14T06:38:01;102814.84;;;1.56;100.00
57948;BME280;43754;56.992;24.292;2023-02-14T06:40:33;102818.28;;;1.58;100.00
57948;BME280;43754;56.992;24.292;2023-02-14T06:43:05;102816.41;;;1.60;100.00
57948;BME280;43754;56.992;24.292;2023-02-14T06:45:39;102825.91;;;1.64;100.00
57948;BME280;43754;56.992;24.292;2023-02-14T06:48:14;102828.44;;;1.67;100.00
57948;BME280;43754;56.992;24.292;2023-02-14T06:50:46;102833.47;;;1.71;100.00
57948;BME280;43754;56.992;24.292;2023-02-14T06:53:18;102841.19;;;1.76;100.00
57948;BME280;43754;56.992;24.292;2023-02-14T06:55:50;102842.91;;;1.77;100.00
57948;BME280;43754;56.992;24.292;2023-02-14T06:58:22;102847.13;;;1.81;100.00
57948;BME280;43754;56.992;24.292;2023-02-14T07:00:56;102842.50;;;1.86;100.00
57948;BME280;43754;56.992;24.292;2023-02-14T07:03:29;102836.88;;;1.92;100.00
57948;BME280;43754;56.992;24.292;2023-02-14T07:06:01;102843.53;;;2.01;100.00
57948;BME280;43754;56.992;24.292;2023-02-14T07:08:33;102827.22;;;2.10;100.00
57948;BME280;43754;56.992;24.292;2023-02-14T07:11:05;102832.78;;;2.22;100.00
57948;BME280;43754;56.992;24.292;2023-02-14T07:13:37;102837.78;;;2.28;100.00
57948;BME280;43754;56.992;24.292;2023-02-14T07:16:10;102829.47;;;2.36;100.00
57948;BME280;43754;56.992;24.292;2023-02-14T07:18:42;102848.47;;;2.44;100.00
57948;BME280;43754;56.992;24.292;2023-02-14T07:21:14;102851.75;;;2.49;100.00
57948;BME280;43754;56.992;24.292;2023-02-14T07:23:46;102855.38;;;2.64;100.00
57948;BME280;43754;56.992;24.292;2023-02-14T07:26:20;102850.44;;;2.75;100.00
57948;BME280;43754;56.992;24.292;2023-02-14T07:28:52;102862.47;;;2.81;100.00
57948;BME280;43754;56.992;24.292;2023-02-14T07:31:25;102875.25;;;2.90;100.00
57948;BME280;43754;56.992;24.292;2023-02-14T07:33:58;102879.69;;;3.06;100.00
57948;BME280;43754;56.992;24.292;2023-02-14T07:36:31;102867.44;;;3.21;100.00
57948;BME280;43754;56.992;24.292;2023-02-14T07:39:03;102880.38;;;3.27;100.00
57948;BME280;43754;56.992;24.292;2023-02-14T07:41:36;102874.13;;;3.28;100.00
57948;BME280;43754;56.992;24.292;2023-02-14T07:44:13;102877.88;;;3.24;100.00
57948;BME280;43754;56.992;24.292;2023-02-14T07:46:46;102875.84;;;3.29;100.00
57948;BME280;43754;56.992;24.292;2023-02-14T07:49:18;102877.53;;;3.30;100.00
57948;BME280;43754;56.992;24.292;2023-02-14T07:51:50;102876.72;;;3.30;100.00
57948;BME280;43754;56.992;24.292;2023-02-14T07:54:22;102889.56;;;3.37;100.00
57948;BME280;43754;56.992;24.292;2023-02-14T07:56:54;102883.66;;;3.48;100.00
57948;BME280;43754;56.992;24.292;2023-02-14T07:59:27;102883.13;;;3.58;100.00
57948;BME280;43754;56.992;24.292;2023-02-14T08:02:00;102883.63;;;3.65;100.00
57948;BME280;43754;56.992;24.292;2023-02-14T08:04:32;102877.22;;;3.69;100.00
57948;BME280;43754;56.992;24.292;2023-02-14T08:07:04;102881.22;;;3.76;100.00
57948;BME280;43754;56.992;24.292;2023-02-14T08:09:36;102895.78;;;3.85;100.00
57948;BME280;43754;56.992;24.292;2023-02-14T08:12:09;102888.56;;;3.88;100.00
57948;BME280;43754;56.992;24.292;2023-02-14T08:14:59;102902.31;;;3.95;100.00
57948;BME280;43754;56.992;24.292;2023-02-14T08:17:52;102898.47;;;4.00;100.00
57948;BME280;43754;56.992;24.292;2023-02-14T08:20:26;102897.38;;;4.04;100.00
57948;BME280;43754;56.992;24.292;2023-02-14T08:22:58;102905.31;;;4.04;100.00
57948;BME280;43754;56.992;24.292;2023-02-14T08:25:30;102900.94;;;4.19;100.00
57948;BME280;43754;56.992;24.292;2023-02-14T08:28:02;102908.22;;;4.15;100.00
57948;BME280;43754;56.992;24.292;2023-02-14T08:30:35;102913.88;;;4.25;100.00
57948;BME280;43754;56.992;24.292;2023-02-14T08:33:10;102907.19;;;4.18;100.00
57948;BME280;43754;56.992;24.292;2023-02-14T08:35:42;102921.31;;;4.18;100.00
57948;BME280;43754;56.992;24.292;2023-02-14T08:38:14;102901.97;;;4.32;100.00
57948;BME280;43754;56.992;24.292;2023-02-14T08:40:46;102914.63;;;4.43;100.00
57948;BME280;43754;56.992;24.292;2023-02-14T08:43:18;102919.00;;;4.44;100.00
57948;BME280;43754;56.992;24.292;2023-02-14T08:45:51;102924.31;;;4.44;100.00
57948;BME280;43754;56.992;24.292;2023-02-14T08:48:25;102929.34;;;4.64;100.00
57948;BME280;43754;56.992;24.292;2023-02-14T08:50:57;102925.78;;;4.49;100.00
57948;BME280;43754;56.992;24.292;2023-02-14T08:53:30;102925.09;;;4.46;100.00
57948;BME280;43754;56.992;24.292;2023-02-14T08:56:03;102941.34;;;4.55;100.00
57948;BME280;43754;56.992;24.292;2023-02-14T08:58:35;102939.22;;;4.62;100.00
57948;BME280;43754;56.992;24.292;2023-02-14T09:01:09;102944.84;;;4.56;100.00
57948;BME280;43754;56.992;24.292;2023-02-14T09:03:43;102946.50;;;4.43;100.00
57948;BME280;43754;56.992;24.292;2023-02-14T09:06:16;102944.78;;;4.57;100.00
57948;BME280;43754;56.992;24.292;2023-02-14T09:08:48;102947.50;;;4.56;100.00
57948;BME280;43754;56.992;24.292;2023-02-14T09:11:22;102945.78;;;4.71;100.00
57948;BME280;43754;56.992;24.292;2023-02-14T09:13:55;102952.28;;;4.81;100.00
57948;BME280;43754;56.992;24.292;2023-02-14T09:16:27;102944.28;;;4.96;100.00
57948;BME280;43754;56.992;24.292;2023-02-14T09:19:01;102939.78;;;4.97;100.00
57948;BME280;43754;56.992;24.292;2023-02-14T09:21:33;102951.28;;;4.97;100.00
57948;BME280;43754;56.992;24.292;2023-02-14T09:24:05;102959.38;;;4.96;100.00
57948;BME280;43754;56.992;24.292;2023-02-14T09:26:37;102963.72;;;4.97;100.00
57948;BME280;43754;56.992;24.292;2023-02-14T09:29:11;102964.56;;;4.97;100.00
57948;BME280;43754;56.992;24.292;2023-02-14T09:31:44;102957.72;;;5.09;100.00
57948;BME280;43754;56.992;24.292;2023-02-14T09:34:17;102958.47;;;5.11;100.00
57948;BME280;43754;56.992;24.292;2023-02-14T09:37:09;102969.69;;;5.16;100.00
57948;BME280;43754;56.992;24.292;2023-02-14T09:39:59;102961.66;;;5.32;100.00
57948;BME280;43754;56.992;24.292;2023-02-14T09:42:39;102970.97;;;5.39;100.00
57948;BME280;43754;56.992;24.292;2023-02-14T09:45:14;102970.88;;;5.40;100.00
57948;BME280;43754;56.992;24.292;2023-02-14T09:47:50;102964.50;;;5.29;100.00
57948;BME280;43754;56.992;24.292;2023-02-14T09:50:29;102964.63;;;5.41;100.00
57948;BME280;43754;56.992;24.292;2023-02-14T09:53:06;102971.47;;;5.45;100.00
57948;BME280;43754;56.992;24.292;2023-02-14T09:55:44;102977.91;;;5.55;100.00
57948;BME280;43754;56.992;24.292;2023-02-14T09:58:21;102977.72;;;5.44;100.00
57948;BME280;43754;56.992;24.292;2023-02-14T10:00:58;102973.22;;;5.31;100.00
57948;BME280;43754;56.992;24.292;2023-02-14T10:03:50;102967.81;;;5.32;99.58
57948;BME280;43754;56.992;24.292;2023-02-14T10:06:38;102966.56;;;5.24;99.50
57948;BME280;43754;56.992;24.292;2023-02-14T10:09:44;102972.94;;;5.21;100.00
57948;BME280;43754;56.992;24.292;2023-02-14T10:12:23;102975.06;;;5.44;100.00
57948;BME280;43754;56.992;24.292;2023-02-14T10:14:59;102983.97;;;5.43;97.92
57948;BME280;43754;56.992;24.292;2023-02-14T10:17:37;102976.66;;;5.33;97.86
57948;BME280;43754;56.992;24.292;2023-02-14T10:20:17;102981.91;;;5.48;98.50
57948;BME280;43754;56.992;24.292;2023-02-14T10:23:01;102979.16;;;5.64;98.55
57948;BME280;43754;56.992;24.292;2023-02-14T10:25:39;102980.25;;;5.76;96.47
57948;BME280;43754;56.992;24.292;2023-02-14T10:28:14;102977.72;;;5.88;95.58
57948;BME280;43754;56.992;24.292;2023-02-14T10:30:55;102984.09;;;6.00;96.26
57948;BME280;43754;56.992;24.292;2023-02-14T10:33:33;102976.66;;;5.91;96.48
57948;BME280;43754;56.992;24.292;2023-02-14T10:36:15;102979.22;;;6.07;96.19
57948;BME280;43754;56.992;24.292;2023-02-14T10:39:00;102978.44;;;6.19;93.88
57948;BME280;43754;56.992;24.292;2023-02-14T10:41:41;102975.78;;;6.19;94.01
57948;BME280;43754;56.992;24.292;2023-02-14T10:44:29;102966.69;;;5.94;93.37
57948;BME280;43754;56.992;24.292;2023-02-14T10:47:26;102980.19;;;5.91;93.44
57948;BME280;43754;56.992;24.292;2023-02-14T10:50:10;102975.25;;;5.99;92.92
57948;BME280;43754;56.992;24.292;2023-02-14T10:52:51;102965.53;;;5.98;93.33
57948;BME280;43754;56.992;24.292;2023-02-14T10:55:38;102972.75;;;6.11;92.17
57948;BME280;43754;56.992;24.292;2023-02-14T10:58:16;102982.38;;;5.99;91.04
57948;BME280;43754;56.992;24.292;2023-02-14T11:00:54;102978.53;;;5.89;92.03
57948;BME280;43754;56.992;24.292;2023-02-14T11:03:29;102987.09;;;5.94;92.66
57948;BME280;43754;56.992;24.292;2023-02-14T11:06:01;102988.06;;;6.21;93.03
57948;BME280;43754;56.992;24.292;2023-02-14T11:08:35;102974.72;;;6.35;92.68
57948;BME280;43754;56.992;24.292;2023-02-14T11:11:15;102983.19;;;6.42;90.14
57948;BME280;43754;56.992;24.292;2023-02-14T11:13:50;102988.94;;;6.48;90.68
57948;BME280;43754;56.992;24.292;2023-02-14T11:16:29;102984.50;;;6.35;88.47
57948;BME280;43754;56.992;24.292;2023-02-14T11:19:18;102985.34;;;6.50;89.46
57948;BME280;43754;56.992;24.292;2023-02-14T11:21:52;102988.00;;;6.50;89.97
57948;BME280;43754;56.992;24.292;2023-02-14T11:24:28;102981.97;;;6.60;90.97
57948;BME280;43754;56.992;24.292;2023-02-14T11:27:03;102997.56;;;6.66;88.18
57948;BME280;43754;56.992;24.292;2023-02-14T11:29:43;102989.94;;;6.74;90.28
57948;BME280;43754;56.992;24.292;2023-02-14T11:32:20;102986.03;;;6.80;89.31
57948;BME280;43754;56.992;24.292;2023-02-14T11:34:55;102982.00;;;6.87;89.90
57948;BME280;43754;56.992;24.292;2023-02-14T11:37:31;102976.78;;;6.98;89.66
57948;BME280;43754;56.992;24.292;2023-02-14T11:40:08;102984.34;;;6.91;87.95
57948;BME280;43754;56.992;24.292;2023-02-14T11:42:57;102997.56;;;6.66;87.29
57948;BME280;43754;56.992;24.292;2023-02-14T11:45:46;102998.22;;;6.29;88.62
57948;BME280;43754;56.992;24.292;2023-02-14T11:48:21;102997.72;;;6.36;89.11
57948;BME280;43754;56.992;24.292;2023-02-14T11:51:09;103001.19;;;6.24;87.95
57948;BME280;43754;56.992;24.292;2023-02-14T11:53:46;103009.06;;;6.12;90.09
57948;BME280;43754;56.992;24.292;2023-02-14T11:56:21;103012.97;;;5.92;90.14
57948;BME280;43754;56.992;24.292;2023-02-14T11:58:56;103004.34;;;5.88;89.49
57948;BME280;43754;56.992;24.292;2023-02-14T12:01:31;103005.31;;;5.86;89.03
57948;BME280;43754;56.992;24.292;2023-02-14T12:04:10;103005.28;;;5.87;89.89
57948;BME280;43754;56.992;24.292;2023-02-14T12:06:44;103002.72;;;6.00;90.83
57948;BME280;43754;56.992;24.292;2023-02-14T12:09:25;103002.41;;;6.19;91.14
57948;BME280;43754;56.992;24.292;2023-02-14T12:11:59;103002.78;;;6.27;89.64
57948;BME280;43754;56.992;24.292;2023-02-14T12:14:34;103008.38;;;6.36;90.32
57948;BME280;43754;56.992;24.292;2023-02-14T12:17:13;103000.31;;;6.38;89.88
57948;BME280;43754;56.992;24.292;2023-02-14T12:19:52;103006.66;;;6.35;89.63
57948;BME280;43754;56.992;24.292;2023-02-14T12:22:29;103008.47;;;6.35;89.88
57948;BME280;43754;56.992;24.292;2023-02-14T12:25:10;103009.53;;;6.32;89.78
57948;BME280;43754;56.992;24.292;2023-02-14T12:27:48;103003.84;;;6.24;91.38
57948;BME280;43754;56.992;24.292;2023-02-14T12:30:24;103002.13;;;6.23;90.48
57948;BME280;43754;56.992;24.292;2023-02-14T12:32:59;102999.94;;;6.16;90.47
57948;BME280;43754;56.992;24.292;2023-02-14T12:35:41;102993.75;;;6.15;90.42
57948;BME280;43754;56.992;24.292;2023-02-14T12:38:20;102988.16;;;6.06;90.77
57948;BME280;43754;56.992;24.292;2023-02-14T12:40:58;102988.81;;;5.95;90.76
57948;BME280;43754;56.992;24.292;2023-02-14T12:43:45;102992.56;;;5.92;91.55
57948;BME280;43754;56.992;24.292;2023-02-14T12:46:46;102992.63;;;5.91;91.36
57948;BME280;43754;56.992;24.292;2023-02-14T12:49:37;102982.28;;;5.86;90.06
57948;BME280;43754;56.992;24.292;2023-02-14T12:52:32;102988.78;;;5.81;91.42
57948;BME280;43754;56.992;24.292;2023-02-14T12:55:27;102987.25;;;5.77;90.64
57948;BME280;43754;56.992;24.292;2023-02-14T12:58:06;102986.72;;;5.72;92.06
57948;BME280;43754;56.992;24.292;2023-02-14T13:00:52;102994.09;;;5.67;92.96
57948;BME280;43754;56.992;24.292;2023-02-14T13:03:41;103004.72;;;5.52;89.17
57948;BME280;43754;56.992;24.292;2023-02-14T13:06:18;103004.31;;;5.44;91.84
57948;BME280;43754;56.992;24.292;2023-02-14T13:09:03;103010.03;;;5.38;91.60
57948;BME280;43754;56.992;24.292;2023-02-14T13:11:49;103005.53;;;5.39;93.53
57948;BME280;43754;56.992;24.292;2023-02-14T13:14:42;103013.25;;;5.43;94.38
57948;BME280;43754;56.992;24.292;2023-02-14T13:17:21;103005.38;;;5.42;94.42
57948;BME280;43754;56.992;24.292;2023-02-14T13:20:03;103008.03;;;5.42;93.91
57948;BME280;43754;56.992;24.292;2023-02-14T13:22:36;103013.03;;;5.32;93.44
57948;BME280;43754;56.992;24.292;2023-02-14T13:25:16;103018.34;;;5.32;94.45
57948;BME280;43754;56.992;24.292;2023-02-14T13:27:49;103013.56;;;5.23;94.07
57948;BME280;43754;56.992;24.292;2023-02-14T13:30:24;103019.81;;;5.22;93.73
57948;BME280;43754;56.992;24.292;2023-02-14T13:33:02;103016.59;;;5.17;94.33
57948;BME280;43754;56.992;24.292;2023-02-14T13:35:38;103026.25;;;5.18;94.74